Time;durP1;ratioP1;P1;durP2;ratioP2;P2;SDS_P1;SDS_P2;PMS_P1;PMS_P2;Temp;Humidity;BMP_temperature;BMP_pressure;BME280_temperature;BME280_humidity;BME280_pressure;Samples;Min_cycle;Max_cycle;Signal;HPM_P1;HPM_P2
2021/10/25 00:06:04;;;;;;;1.57;1.07;;;15.60;99.90;;;;;;20332241;29;20590;-68
2021/10/25 00:16:09;;;;;;;18.07;1.40;;;15.80;99.90;;;;;;20334912;29;20254;-67
2021/10/25 00:26:13;;;;;;;0.83;0.83;;;15.90;99.90;;;;;;20341405;29;20298;-67
2021/10/25 00:36:18;;;;;;;0.20;0.10;;;16.00;99.90;;;;;;20348792;29;20287;-67
2021/10/25 00:46:22;;;;;;;0.33;0.27;;;15.90;99.90;;;;;;20347380;29;20329;-67
2021/10/25 00:56:28;;;;;;;2.47;0.97;;;15.90;99.90;;;;;;20347784;29;20198;-67
2021/10/25 01:06:32;;;;;;;0.40;0.30;;;15.90;99.90;;;;;;20347330;29;20234;-68
2021/10/25 01:16:37;;;;;;;2.00;1.47;;;15.80;99.90;;;;;;20347031;29;20217;-68
2021/10/25 01:26:42;;;;;;;0.20;0.03;;;15.70;99.90;;;;;;20345885;29;20273;-69
2021/10/25 01:36:46;;;;;;;0.43;0.43;;;15.60;99.90;;;;;;20344705;29;20306;-67
2021/10/25 01:46:51;;;;;;;0.50;0.50;;;15.60;99.90;;;;;;20343847;29;20226;-68
2021/10/25 01:56:55;;;;;;;2.10;0.93;;;15.70;99.90;;;;;;20292282;29;20203;-67
2021/10/25 02:07:02;;;;;;;4.00;1.30;;;15.70;99.90;;;;;;20264626;29;20643;-67
2021/10/25 02:17:05;;;;;;;2.83;0.57;;;15.60;99.90;;;;;;20262546;29;20621;-67
2021/10/25 02:27:12;;;;;;;1.00;0.93;;;15.50;99.90;;;;;;20262386;29;20246;-68
2021/10/25 02:37:17;;;;;;;2.67;1.50;;;15.40;99.90;;;;;;20262414;29;20588;-68
2021/10/25 02:47:22;;;;;;;1.63;0.90;;;15.40;99.90;;;;;;20261339;29;20242;-67
2021/10/25 02:57:25;;;;;;;0.93;0.83;;;15.50;99.90;;;;;;20317113;29;20618;-67
2021/10/25 03:07:31;;;;;;;0.33;0.33;;;15.50;99.90;;;;;;20339105;29;20269;-67
2021/10/25 03:17:35;;;;;;;0.87;0.87;;;15.50;99.90;;;;;;20339373;29;20194;-68
2021/10/25 03:27:41;;;;;;;0.87;0.87;;;15.50;99.90;;;;;;20338337;29;20758;-68
2021/10/25 03:37:45;;;;;;;2.77;1.33;;;15.20;99.90;;;;;;20337451;29;20727;-68
2021/10/25 03:47:52;;;;;;;1.20;0.93;;;15.00;99.90;;;;;;20336793;29;20233;-66
2021/10/25 04:29:08;;;;;;;0.20;0.10;;;14.50;99.90;;;;;;20270870;29;20194;-67
2021/10/25 04:39:13;;;;;;;0.30;0.30;;;14.40;99.90;;;;;;20271205;29;20282;-68
2021/10/25 04:49:18;;;;;;;0.30;0.30;;;14.20;99.90;;;;;;20270916;29;20199;-66
2021/10/25 04:59:22;;;;;;;1.40;0.50;;;14.30;99.90;;;;;;20339717;29;20226;-67
2021/10/25 05:09:28;;;;;;;0.30;0.23;;;14.40;99.90;;;;;;20346112;29;20683;-68
2021/10/25 05:19:31;;;;;;;1.53;1.43;;;14.30;99.90;;;;;;20344942;29;20699;-68
2021/10/25 05:29:37;;;;;;;0.40;0.37;;;14.30;99.90;;;;;;20339852;29;20222;-67
2021/10/25 05:39:41;;;;;;;0.37;0.17;;;14.20;99.90;;;;;;20342867;29;20230;-67
2021/10/25 05:49:47;;;;;;;0.50;0.50;;;14.20;99.90;;;;;;20342055;29;20694;-68
2021/10/25 05:59:50;;;;;;;0.20;0.13;;;14.10;99.90;;;;;;20339060;29;20660;-68
2021/10/25 06:09:56;;;;;;;0.50;0.50;;;14.10;99.90;;;;;;20334729;29;20214;-68
2021/10/25 06:20:01;;;;;;;0.37;0.37;;;14.10;99.90;;;;;;20352883;29;20237;-68
2021/10/25 06:30:08;;;;;;;0.20;0.10;;;14.00;99.90;;;;;;20339113;29;20273;-67
2021/10/25 06:40:12;;;;;;;0.30;0.30;;;14.10;99.90;;;;;;20338866;29;20311;-69
2021/10/25 06:50:19;;;;;;;0.23;0.20;;;14.20;99.90;;;;;;20339470;29;20281;-67
2021/10/25 07:00:23;;;;;;;0.87;0.87;;;14.60;99.90;;;;;;20258133;29;20274;-68
2021/10/25 07:10:28;;;;;;;0.30;0.20;;;14.80;99.90;;;;;;20258177;29;20286;-68
2021/10/25 07:21:14;;;;;;;0.20;0.20;;;15.10;99.90;;;;;;20299450;29;20664;-68
2021/10/25 08:13:17;;;;;;;0.97;0.97;;;15.70;99.90;;;;;;20310802;29;20288;-67
2021/10/25 08:23:20;;;;;;;0.20;0.10;;;16.10;99.90;;;;;;20333563;29;20245;-67
2021/10/25 08:33:47;;;;;;;0.97;0.40;;;16.60;99.90;;;;;;20332863;29;20289;-69
2021/10/25 08:43:53;;;;;;;0.43;0.43;;;16.90;99.90;;;;;;20325507;29;20253;-67
2021/10/25 08:53:58;;;;;;;0.30;0.30;;;17.30;99.90;;;;;;20346312;29;20205;-67
2021/10/25 09:04:06;;;;;;;0.47;0.47;;;17.90;99.90;;;;;;20344372;29;20245;-67
2021/10/25 09:14:16;;;;;;;2.57;2.13;;;18.60;99.90;;;;;;20340414;29;20226;-68
2021/10/25 09:24:23;;;;;;;0.50;0.50;;;19.30;99.90;;;;;;20270810;29;20340;-68
2021/10/25 09:34:39;;;;;;;0.63;0.63;;;19.40;99.90;;;;;;20276295;29;20213;-68
2021/10/25 09:55:08;;;;;;;0.50;0.50;;;19.90;99.90;;;;;;20293991;29;20282;-68
2021/10/25 10:05:14;;;;;;;3.20;0.40;;;20.10;99.90;;;;;;20262853;29;20239;-67
2021/10/25 10:15:21;;;;;;;1.13;1.07;;;20.40;99.90;;;;;;20263177;29;20203;-69
2021/10/25 10:25:29;;;;;;;5.30;0.80;;;20.60;99.90;;;;;;20260364;29;20227;-68
2021/10/25 10:35:42;;;;;;;4.53;0.30;;;20.90;99.90;;;;;;20279297;29;20639;-66
2021/10/25 10:45:56;;;;;;;0.20;0.20;;;21.50;99.90;;;;;;20336949;29;20230;-67
2021/10/25 10:56:05;;;;;;;0.20;0.00;;;21.60;99.90;;;;;;20336546;29;20198;-67
2021/10/25 11:06:11;;;;;;;0.20;0.10;;;21.80;99.90;;;;;;20336445;29;20272;-67
2021/10/25 11:16:23;;;;;;;0.30;0.30;;;22.40;99.90;;;;;;20335648;29;20556;-69
2021/10/25 11:26:32;;;;;;;0.75;0.70;;;23.40;99.90;;;;;;20335756;29;20280;-71
2021/10/25 11:36:50;;;;;;;0.22;0.15;;;23.60;99.90;;;;;;20335617;29;20205;-70
2021/10/25 11:46:55;;;;;;;1.10;1.10;;;23.50;99.90;;;;;;20334473;29;20692;-71
2021/10/25 11:57:03;;;;;;;2.50;1.08;;;23.80;99.90;;;;;;20333854;29;20205;-65
2021/10/25 12:07:08;;;;;;;0.60;0.60;;;24.10;99.90;;;;;;20333282;29;20264;-70
2021/10/25 12:17:18;;;;;;;0.25;0.25;;;24.00;99.90;;;;;;20333874;29;20194;-70
2021/10/25 12:27:26;;;;;;;0.85;0.55;;;24.80;99.90;;;;;;20346816;29;20746;-70
2021/10/25 12:37:34;;;;;;;0.28;0.25;;;24.80;99.90;;;;;;20337097;29;20208;-72
2021/10/25 12:47:40;;;;;;;2.92;1.23;;;24.70;99.90;;;;;;20343596;29;20218;-69
2021/10/25 12:57:45;;;;;;;0.52;0.52;;;24.90;99.90;;;;;;20346375;29;20198;-68
2021/10/25 13:07:51;;;;;;;2.83;1.40;;;25.30;99.90;;;;;;20315675;29;20243;-70
2021/10/25 13:17:59;;;;;;;0.68;0.30;;;24.80;99.90;;;;;;20267371;29;20199;-70
2021/10/25 13:28:05;;;;;;;1.27;0.75;;;25.40;99.90;;;;;;20323559;29;20257;-70
2021/10/25 13:38:13;;;;;;;0.20;0.17;;;25.30;99.90;;;;;;20337308;29;20198;-70
2021/10/25 13:48:17;;;;;;;2.38;1.40;;;26.00;99.90;;;;;;20334311;29;20296;-71
2021/10/25 13:58:22;;;;;;;4.45;1.48;;;26.00;99.90;;;;;;20276605;29;20191;-69
2021/10/25 14:08:26;;;;;;;0.70;0.60;;;25.80;99.90;;;;;;20262773;29;20239;-69
2021/10/25 14:18:32;;;;;;;7.15;0.68;;;24.00;99.90;;;;;;20258853;29;20644;-70
2021/10/25 14:28:36;;;;;;;0.77;0.32;;;25.50;99.90;;;;;;20259652;29;20313;-69
2021/10/25 14:38:47;;;;;;;0.43;0.43;;;22.60;99.90;;;;;;20256355;29;20237;-69
2021/10/25 14:48:54;;;;;;;0.90;0.75;;;22.70;99.90;;;;;;20319147;29;20459;-69
2021/10/25 14:58:59;;;;;;;1.50;1.08;;;22.40;99.90;;;;;;20267030;29;20194;-70
2021/10/25 15:09:03;;;;;;;2.63;1.30;;;24.20;99.90;;;;;;20253635;29;20278;-71
2021/10/25 15:19:08;;;;;;;0.45;0.45;;;22.80;99.90;;;;;;20252470;29;20286;-69
2021/10/25 15:29:12;;;;;;;0.90;0.60;;;21.90;99.90;;;;;;20252094;29;20225;-70
2021/10/25 15:39:17;;;;;;;1.13;0.40;;;21.20;99.90;;;;;;20251776;29;20232;-70
2021/10/25 15:49:22;;;;;;;1.80;0.60;;;20.90;99.90;;;;;;20320559;29;20320;-71
2021/10/25 15:59:27;;;;;;;0.83;0.77;;;20.60;99.90;;;;;;20341871;29;20664;-71
2021/10/25 16:09:39;;;;;;;0.20;0.17;;;20.50;99.90;;;;;;20343817;29;20270;-71
2021/10/25 16:19:47;;;;;;;0.37;0.30;;;20.50;99.90;;;;;;20344429;29;20222;-72
2021/10/25 16:29:51;;;;;;;0.20;0.20;;;20.20;99.90;;;;;;20343979;29;20372;-74
2021/10/25 16:39:56;;;;;;;0.30;0.30;;;19.80;99.90;;;;;;20343988;29;20194;-74
2021/10/25 16:50:02;;;;;;;1.17;1.10;;;19.70;99.90;;;;;;20343224;29;20254;-70
2021/10/25 17:10:31;;;;;;;1.17;0.67;;;19.30;99.90;;;;;;20264547;29;20234;-71
2021/10/25 17:20:36;;;;;;;1.47;1.03;;;19.10;99.90;;;;;;20265250;29;20206;-71
2021/10/25 17:30:40;;;;;;;0.50;0.50;;;18.80;99.90;;;;;;20309604;29;20317;-74
2021/10/25 17:40:49;;;;;;;0.57;0.57;;;18.60;99.90;;;;;;20291593;29;20254;-72
2021/10/25 17:50:55;;;;;;;9.87;0.90;;;18.40;99.90;;;;;;20297646;29;20215;-73
2021/10/25 18:01:01;;;;;;;2.30;1.17;;;17.80;99.90;;;;;;20260209;29;20561;-76
2021/10/25 18:11:05;;;;;;;0.67;0.67;;;17.60;99.90;;;;;;20258057;29;20263;-74
2021/10/25 18:21:11;;;;;;;2.13;1.17;;;17.30;99.90;;;;;;20257993;29;20201;-74
2021/10/25 18:31:15;;;;;;;1.27;0.87;;;17.10;99.90;;;;;;20259534;29;20247;-75
2021/10/25 18:41:20;;;;;;;0.97;0.97;;;16.90;99.90;;;;;;20335878;29;20256;-74
2021/10/25 18:51:25;;;;;;;0.70;0.67;;;16.80;99.90;;;;;;20335207;29;20240;-73
2021/10/25 19:01:31;;;;;;;0.67;0.67;;;16.60;99.90;;;;;;20333506;29;20708;-72
2021/10/25 19:11:37;;;;;;;0.33;0.33;;;16.50;99.90;;;;;;20349263;29;20726;-73
2021/10/25 19:21:44;;;;;;;1.17;1.07;;;16.40;99.90;;;;;;20333179;29;20213;-74
2021/10/25 19:31:49;;;;;;;0.30;0.17;;;16.30;99.90;;;;;;20332210;29;20743;-73
2021/10/25 19:41:57;;;;;;;0.57;0.57;;;16.10;99.90;;;;;;20332474;29;20250;-74
2021/10/25 19:52:01;;;;;;;0.27;0.23;;;16.00;99.90;;;;;;20332265;29;20210;-73
2021/10/25 20:02:06;;;;;;;1.17;1.07;;;15.90;99.90;;;;;;20331540;29;20222;-73
2021/10/25 20:12:20;;;;;;;0.20;0.13;;;15.70;99.90;;;;;;20330919;29;20224;-73
2021/10/25 20:22:25;;;;;;;0.57;0.50;;;15.60;99.90;;;;;;20331261;29;20289;-74
2021/10/25 20:32:29;;;;;;;0.37;0.37;;;15.50;99.90;;;;;;20330916;29;20230;-74
2021/10/25 20:42:35;;;;;;;2.30;1.00;;;15.50;99.90;;;;;;20337000;29;20293;-73
2021/10/25 20:52:38;;;;;;;4.03;1.07;;;15.60;99.90;;;;;;20346284;29;20749;-72
2021/10/25 21:02:47;;;;;;;0.67;0.30;;;15.30;99.90;;;;;;20344856;29;20268;-73
2021/10/25 21:12:52;;;;;;;0.30;0.30;;;15.30;99.90;;;;;;20344150;29;20206;-74
2021/10/25 21:22:58;;;;;;;0.30;0.20;;;15.30;99.90;;;;;;20360717;29;20240;-78
2021/10/25 21:33:02;;;;;;;6.33;1.47;;;15.20;99.90;;;;;;20344458;29;20289;-80
2021/10/25 21:43:07;;;;;;;0.20;0.10;;;15.40;99.90;;;;;;20344688;29;20236;-77
2021/10/25 21:53:11;;;;;;;0.33;0.23;;;15.30;99.90;;;;;;20344817;29;20679;-75
2021/10/25 22:03:24;;;;;;;0.73;0.73;;;15.20;99.90;;;;;;20342987;29;20737;-75
2021/10/25 22:13:28;;;;;;;5.73;0.53;;;15.40;99.90;;;;;;20342780;29;20202;-76
2021/10/25 22:23:33;;;;;;;2.00;1.03;;;15.20;99.90;;;;;;20340868;29;20546;-74
2021/10/25 22:33:37;;;;;;;0.40;0.40;;;15.30;99.90;;;;;;20340815;29;20566;-77
2021/10/25 22:43:42;;;;;;;0.20;0.20;;;15.20;99.90;;;;;;20341548;29;20237;-78
2021/10/25 22:53:46;;;;;;;0.40;0.20;;;15.30;99.90;;;;;;20340129;29;20217;-76
2021/10/25 23:03:51;;;;;;;2.30;2.10;;;15.20;99.90;;;;;;20338322;29;20289;-76
2021/10/25 23:13:54;;;;;;;0.20;0.10;;;15.40;99.90;;;;;;20338800;29;20735;-75
2021/10/25 23:23:59;;;;;;;4.47;0.83;;;15.60;99.90;;;;;;20337710;29;20310;-75
2021/10/25 23:34:06;;;;;;;0.53;0.53;;;15.60;99.90;;;;;;20336745;29;20202;-75
2021/10/25 23:44:11;;;;;;;0.97;0.87;;;15.30;99.90;;;;;;20336973;29;20229;-76
2021/10/25 23:54:21;;;;;;;2.23;1.17;;;15.20;99.90;;;;;;20336338;29;20644;-77
